createdAt,value
2018-09-06T00:00:33.456Z,75.73
2018-09-06T00:01:33.441Z,75.34
2018-09-06T00:02:33.427Z,74.86
2018-09-06T00:03:33.412Z,75.34
2018-09-06T00:04:33.396Z,75.54
2018-09-06T00:05:33.381Z,75.44
2018-09-06T00:06:33.366Z,75.34
2018-09-06T00:07:33.352Z,74.96
2018-09-06T00:08:33.337Z,75.54
2018-09-06T00:09:33.322Z,75.15
2018-09-06T00:10:33.307Z,75.05
2018-09-06T00:11:33.297Z,74.96
2018-09-06T00:12:33.277Z,75.34
2018-09-06T00:13:33.263Z,75.44
2018-09-06T00:14:33.246Z,75.15
2018-09-06T00:15:33.232Z,75.34
2018-09-06T00:16:33.218Z,75.34
2018-09-06T00:17:33.201Z,75.73
2018-09-06T00:18:33.186Z,75.63
2018-09-06T00:19:33.171Z,75.54
2018-09-06T00:20:33.157Z,75.59
2018-09-06T00:21:33.142Z,75.44
2018-09-06T00:22:33.130Z,75.59
2018-09-06T00:23:33.115Z,75.79
2018-09-06T00:24:33.097Z,75.54
2018-09-06T00:25:33.082Z,75.88
2018-09-06T00:26:33.067Z,75.49
2018-09-06T00:27:33.053Z,75.49
2018-09-06T00:28:33.037Z,75.79
2018-09-06T00:29:33.022Z,75.49
2018-09-06T00:30:33.008Z,75.88
2018-09-06T00:31:32.993Z,75.88
2018-09-06T00:32:32.978Z,75.69
2018-09-06T00:33:32.962Z,76.17
2018-09-06T00:34:32.948Z,75.98
2018-09-06T00:35:32.933Z,76.17
2018-09-06T00:36:32.919Z,75.88
2018-09-06T00:37:32.903Z,76.36
2018-09-06T00:38:32.889Z,76.07
2018-09-06T00:39:32.873Z,75.59
2018-09-06T00:40:32.858Z,75.98
2018-09-06T00:41:32.857Z,75.88
2018-09-06T00:42:32.827Z,75.69
2018-09-06T00:43:32.833Z,75.88
2018-09-06T00:44:32.801Z,76.17
2018-09-06T00:45:32.781Z,76.36
2018-09-06T00:46:32.768Z,75.88
2018-09-06T00:47:32.755Z,76.36
2018-09-06T00:48:32.737Z,76.07
2018-09-06T00:49:32.722Z,76.17
2018-09-06T00:50:32.705Z,75.79
2018-09-06T00:51:32.692Z,76.32
2018-09-06T00:52:32.676Z,76.42
2018-09-06T00:53:32.659Z,76.90
2018-09-06T00:54:32.643Z,76.52
2018-09-06T00:55:32.629Z,76.81
2018-09-06T00:56:32.615Z,76.52
2018-09-06T00:57:32.599Z,76.71
2018-09-06T00:58:32.584Z,76.14
2018-09-06T00:59:32.571Z,76.75
2018-09-06T01:00:32.556Z,76.81
2018-09-06T01:01:32.538Z,76.42
2018-09-06T01:02:32.526Z,76.81
2018-09-06T01:03:32.508Z,76.71
2018-09-06T01:04:32.492Z,76.52
2018-09-06T01:05:32.478Z,76.52
2018-09-06T01:06:32.464Z,76.14
2018-09-06T01:07:32.451Z,76.61
2018-09-06T01:08:32.433Z,76.61
2018-09-06T01:09:32.416Z,76.52
2018-09-06T01:10:32.402Z,76.52
2018-09-06T01:11:32.387Z,76.71
2018-09-06T01:12:32.371Z,76.71
2018-09-06T01:13:32.356Z,76.81
2018-09-06T01:14:32.341Z,77.00
2018-09-06T01:15:32.326Z,76.81
2018-09-06T01:16:32.310Z,76.32
2018-09-06T01:17:32.296Z,76.81
2018-09-06T01:18:32.281Z,76.52
2018-09-06T01:19:32.264Z,76.71
2018-09-06T01:20:32.249Z,76.81
2018-09-06T01:21:32.233Z,77.00
2018-09-06T01:22:32.218Z,77.09
2018-09-06T01:23:32.204Z,76.81
2018-09-06T01:24:32.189Z,77.09
2018-09-06T01:25:32.172Z,77.00
2018-09-06T01:26:32.157Z,76.61
2018-09-06T01:27:32.143Z,77.09
2018-09-06T01:28:32.127Z,77.09
2018-09-06T01:29:32.112Z,77.19
2018-09-06T01:30:32.096Z,77.29
2018-09-06T01:31:32.084Z,77.48
2018-09-06T01:32:32.068Z,77.48
2018-09-06T01:33:32.052Z,77.19
2018-09-06T01:34:32.037Z,77.34
2018-09-06T01:35:32.020Z,77.38
2018-09-06T01:36:32.005Z,77.38
2018-09-06T01:37:31.989Z,77.15
2018-09-06T01:38:32.003Z,77.53
2018-09-06T01:39:31.958Z,77.44
2018-09-06T01:40:31.944Z,77.34
2018-09-06T01:41:31.926Z,77.92
2018-09-06T01:42:31.912Z,77.63
2018-09-06T01:43:31.897Z,77.63
2018-09-06T01:44:31.881Z,77.53
2018-09-06T01:45:31.865Z,77.34
2018-09-06T01:46:31.852Z,77.53
2018-09-06T01:47:31.835Z,77.44
2018-09-06T01:48:31.819Z,77.53
2018-09-06T01:49:31.803Z,77.63
2018-09-06T01:50:31.788Z,77.53
2018-09-06T01:51:31.773Z,77.44
2018-09-06T01:52:31.757Z,77.83
2018-09-06T01:53:31.751Z,77.83
2018-09-06T01:54:31.727Z,77.73
2018-09-06T01:55:31.715Z,77.92
2018-09-06T01:56:31.696Z,77.83
2018-09-06T01:57:31.680Z,77.73
2018-09-06T01:58:31.666Z,77.73
2018-09-06T01:59:31.651Z,77.73
2018-09-06T02:00:31.635Z,77.73
2018-09-06T02:01:31.618Z,77.83
2018-09-06T02:02:31.608Z,77.63
2018-09-06T02:03:31.593Z,77.53
2018-09-06T02:04:31.573Z,77.63
2018-09-06T02:05:31.557Z,77.83
2018-09-06T02:06:31.545Z,77.34
2018-09-06T02:07:31.524Z,77.63
2018-09-06T02:08:31.510Z,77.53
2018-09-06T02:09:31.539Z,77.63
2018-09-06T02:10:31.479Z,77.53
2018-09-06T02:11:31.466Z,77.83
2018-09-06T02:12:31.452Z,77.63
2018-09-06T02:13:31.431Z,77.83
2018-09-06T02:14:31.416Z,77.83
2018-09-06T02:15:31.401Z,77.83
2018-09-06T02:16:31.390Z,78.02
2018-09-06T02:17:31.370Z,78.11
2018-09-06T02:18:31.356Z,78.02
2018-09-06T02:19:31.339Z,78.11
2018-09-06T02:20:31.323Z,78.02
2018-09-06T02:21:31.308Z,77.92
2018-09-06T02:22:31.309Z,78.02
2018-09-06T02:23:31.280Z,78.02
2018-09-06T02:24:31.328Z,77.73
2018-09-06T02:25:31.248Z,77.34
2018-09-06T02:26:31.231Z,77.63
2018-09-06T02:27:31.215Z,77.83
2018-09-06T02:28:31.199Z,78.02
2018-09-06T02:29:31.187Z,78.02
2018-09-06T02:30:31.168Z,78.21
2018-09-06T02:31:31.153Z,78.30
2018-09-06T02:32:31.140Z,77.73
2018-09-06T02:33:31.122Z,77.44
2018-09-06T02:34:31.107Z,77.92
2018-09-06T02:35:31.090Z,78.11
2018-09-06T02:36:31.076Z,78.02
2018-09-06T02:37:31.060Z,78.11
2018-09-06T02:38:31.045Z,78.11
2018-09-06T02:39:31.030Z,78.21
2018-09-06T02:40:31.016Z,78.21
2018-09-06T02:41:30.999Z,78.21
2018-09-06T02:42:30.981Z,78.21
2018-09-06T02:43:30.965Z,78.69
2018-09-06T02:44:30.954Z,78.11
2018-09-06T02:45:30.934Z,78.11
2018-09-06T02:46:30.918Z,78.69
2018-09-06T02:47:30.904Z,78.59
2018-09-06T02:48:30.890Z,78.69
2018-09-06T02:49:30.873Z,78.50
2018-09-06T02:50:30.861Z,78.50
2018-09-06T02:51:30.841Z,78.30
2018-09-06T02:52:30.827Z,78.21
2018-09-06T02:53:30.810Z,78.02
2018-09-06T02:54:30.798Z,77.73
2018-09-06T02:55:30.779Z,77.83
2018-09-06T02:56:30.770Z,78.69
2018-09-06T02:57:30.748Z,78.21
2018-09-06T02:58:30.733Z,78.21
2018-09-06T02:59:30.717Z,78.36
2018-09-06T03:00:30.717Z,78.65
2018-09-06T03:01:30.691Z,78.75
2018-09-06T03:02:30.680Z,78.45
2018-09-06T03:03:30.653Z,78.45
2018-09-06T03:04:30.641Z,77.98
2018-09-06T03:05:30.623Z,78.65
2018-09-06T03:06:30.607Z,78.65
2018-09-06T03:07:30.592Z,78.36
2018-09-06T03:08:30.586Z,78.75
2018-09-06T03:09:30.561Z,79.13
2018-09-06T03:10:30.543Z,78.55
2018-09-06T03:11:30.530Z,78.45
2018-09-06T03:12:30.516Z,78.55
2018-09-06T03:13:30.501Z,78.75
2018-09-06T03:14:30.482Z,78.65
2018-09-06T03:15:30.547Z,79.03
2018-09-06T03:16:30.452Z,79.03
2018-09-06T03:17:30.435Z,79.61
2018-09-06T03:18:30.418Z,78.84
2018-09-06T03:19:30.404Z,79.22
2018-09-06T03:20:30.387Z,79.13
2018-09-06T03:21:30.372Z,78.94
2018-09-06T03:22:30.359Z,78.55
2018-09-06T03:23:30.340Z,78.94
2018-09-06T03:24:30.325Z,79.03
2018-09-06T03:25:30.309Z,78.75
2018-09-06T03:26:30.292Z,78.94
2018-09-06T03:27:30.287Z,79.03
2018-09-06T03:28:30.263Z,78.55
2018-09-06T03:29:30.249Z,78.94
2018-09-06T03:30:30.231Z,79.03
2018-09-06T03:31:30.215Z,78.55
2018-09-06T03:32:30.200Z,79.22
2018-09-06T03:33:30.183Z,78.45
2018-09-06T03:34:30.167Z,78.75
2018-09-06T03:35:30.152Z,78.75
2018-09-06T03:36:30.138Z,79.03
2018-09-06T03:37:30.120Z,79.52
2018-09-06T03:38:30.105Z,79.52
2018-09-06T03:39:30.088Z,79.19
2018-09-06T03:40:30.078Z,78.99
2018-09-06T03:41:30.057Z,79.71
2018-09-06T03:42:30.041Z,79.03
2018-09-06T03:43:30.027Z,79.19
2018-09-06T03:44:30.011Z,79.57
2018-09-06T03:45:29.994Z,79.22
2018-09-06T03:46:29.979Z,79.13
2018-09-06T03:47:29.962Z,79.22
2018-09-06T03:48:29.947Z,79.52
2018-09-06T03:49:29.931Z,79.03
2018-09-06T03:50:29.915Z,79.38
2018-09-06T03:51:29.902Z,79.67
2018-09-06T03:52:29.885Z,79.47
2018-09-06T03:53:29.871Z,80.05
2018-09-06T03:54:29.851Z,79.96
2018-09-06T03:55:29.837Z,79.76
2018-09-06T03:56:29.820Z,80.05
2018-09-06T03:57:29.804Z,79.86
2018-09-06T03:58:29.787Z,80.24
2018-09-06T03:59:29.772Z,79.96
2018-09-06T04:00:29.762Z,79.96
2018-09-06T04:01:29.741Z,79.96
2018-09-06T04:02:29.725Z,79.67
2018-09-06T04:03:29.804Z,80.24
2018-09-06T04:04:29.694Z,80.34
2018-09-06T04:05:29.678Z,80.24
2018-09-06T04:06:29.661Z,80.05
2018-09-06T04:07:29.646Z,79.96
2018-09-06T04:08:29.634Z,79.57
2018-09-06T04:09:29.612Z,79.76
2018-09-06T04:10:29.598Z,80.05
2018-09-06T04:11:29.581Z,79.96
2018-09-06T04:12:29.568Z,79.86
2018-09-06T04:13:29.549Z,79.96
2018-09-06T04:14:29.533Z,80.05
2018-09-06T04:15:29.518Z,80.24
2018-09-06T04:16:29.503Z,80.34
2018-09-06T04:17:29.486Z,80.24
2018-09-06T04:18:29.481Z,80.34
2018-09-06T04:19:29.458Z,80.34
2018-09-06T04:20:29.438Z,80.34
2018-09-06T04:21:29.422Z,80.53
2018-09-06T04:22:29.408Z,80.05
2018-09-06T04:23:29.395Z,79.86
2018-09-06T04:24:29.376Z,80.34
2018-09-06T04:25:29.358Z,79.96
2018-09-06T04:26:29.342Z,80.05
2018-09-06T04:27:29.329Z,80.05
2018-09-06T04:28:29.311Z,80.05
2018-09-06T04:29:29.294Z,80.24
2018-09-06T04:30:29.278Z,80.53
2018-09-06T04:31:29.266Z,80.24
2018-09-06T04:32:29.248Z,80.24
2018-09-06T04:33:29.233Z,80.24
2018-09-06T04:34:29.214Z,80.43
2018-09-06T04:35:29.272Z,80.24
2018-09-06T04:36:29.182Z,80.43
2018-09-06T04:37:29.166Z,80.05
2018-09-06T04:38:30.337Z,80.05
2018-09-06T04:39:29.225Z,80.24
2018-09-06T04:40:29.119Z,80.73
2018-09-06T04:41:29.102Z,81.01
2018-09-06T04:42:29.086Z,80.82
2018-09-06T04:43:29.072Z,81.20
2018-09-06T04:44:29.059Z,81.20
2018-09-06T04:45:29.039Z,81.10
2018-09-06T04:46:29.024Z,81.01
2018-09-06T04:47:29.008Z,81.20
2018-09-06T04:48:28.995Z,81.20
2018-09-06T04:49:28.974Z,80.82
2018-09-06T04:50:28.959Z,81.20
2018-09-06T04:51:28.942Z,80.63
2018-09-06T04:52:29.087Z,81.20
2018-09-06T04:53:28.910Z,81.01
2018-09-06T04:54:28.895Z,80.63
2018-09-06T04:55:28.879Z,81.20
2018-09-06T04:56:28.863Z,81.10
2018-09-06T04:57:28.867Z,81.01
2018-09-06T04:58:28.871Z,80.91
2018-09-06T04:59:28.820Z,81.20
2018-09-06T05:00:28.802Z,81.10
2018-09-06T05:01:28.782Z,81.01
2018-09-06T05:02:28.767Z,81.30
2018-09-06T05:03:28.753Z,80.82
2018-09-06T05:04:28.766Z,81.20
2018-09-06T05:05:28.717Z,80.82
2018-09-06T05:06:28.705Z,81.01
2018-09-06T05:07:28.686Z,81.24
2018-09-06T05:08:28.669Z,80.82
2018-09-06T05:09:28.655Z,81.30
2018-09-06T05:10:28.638Z,81.49
2018-09-06T05:11:28.621Z,80.82
2018-09-06T05:12:28.610Z,81.59
2018-09-06T05:13:28.589Z,81.40
2018-09-06T05:14:28.574Z,81.40
2018-09-06T05:15:28.561Z,81.20
2018-09-06T05:16:28.542Z,81.20
2018-09-06T05:17:28.525Z,81.30
2018-09-06T05:18:28.508Z,81.43
2018-09-06T05:19:28.515Z,80.91
2018-09-06T05:20:28.478Z,81.34
2018-09-06T05:21:28.462Z,81.97
2018-09-06T05:22:28.446Z,81.63
2018-09-06T05:23:28.431Z,81.43
2018-09-06T05:24:28.416Z,81.10
2018-09-06T05:25:28.399Z,81.15
2018-09-06T05:26:28.382Z,81.05
2018-09-06T05:27:28.369Z,81.05
2018-09-06T05:28:28.357Z,81.63
2018-09-06T05:29:28.333Z,81.72
2018-09-06T05:30:28.317Z,81.43
2018-09-06T05:31:28.301Z,81.92
2018-09-06T05:32:28.292Z,81.63
2018-09-06T05:33:28.275Z,80.96
2018-09-06T05:34:28.258Z,81.05
2018-09-06T05:35:28.239Z,81.24
2018-09-06T05:36:28.317Z,80.76
2018-09-06T05:37:28.207Z,80.47
2018-09-06T05:38:28.189Z,80.76
2018-09-06T05:39:28.175Z,81.05
2018-09-06T05:40:28.160Z,81.34
2018-09-06T05:41:28.142Z,81.34
2018-09-06T05:42:28.127Z,81.15
2018-09-06T05:43:28.112Z,81.53
2018-09-06T05:44:28.096Z,80.86
2018-09-06T05:45:28.082Z,80.86
2018-09-06T05:46:28.063Z,81.63
2018-09-06T05:47:28.098Z,81.63
2018-09-06T05:48:28.040Z,80.86
2018-09-06T05:49:28.014Z,81.53
2018-09-06T05:50:28.002Z,81.63
2018-09-06T05:51:27.984Z,81.53
2018-09-06T05:52:27.966Z,81.53
2018-09-06T05:53:28.017Z,81.05
2018-09-06T05:54:27.935Z,80.86
2018-09-06T05:55:27.919Z,81.82
2018-09-06T05:56:27.905Z,81.53
2018-09-06T05:57:27.886Z,81.72
2018-09-06T05:58:27.873Z,81.15
2018-09-06T05:59:27.900Z,81.63
2018-09-06T06:00:27.839Z,81.34
2018-09-06T06:01:27.822Z,81.72
2018-09-06T06:02:27.807Z,81.72
2018-09-06T06:03:27.792Z,81.63
2018-09-06T06:04:27.781Z,81.82
2018-09-06T06:05:27.766Z,81.92
2018-09-06T06:06:27.744Z,81.97
2018-09-06T06:07:27.727Z,82.16
2018-09-06T06:08:27.711Z,82.54
2018-09-06T06:09:27.695Z,82.40
2018-09-06T06:10:27.680Z,82.49
2018-09-06T06:11:27.667Z,82.59
2018-09-06T06:12:27.647Z,82.40
2018-09-06T06:13:27.634Z,82.07
2018-09-06T06:14:27.616Z,82.87
2018-09-06T06:15:27.599Z,82.74
2018-09-06T06:16:27.584Z,82.45
2018-09-06T06:17:27.565Z,83.31
2018-09-06T06:18:27.552Z,82.84
2018-09-06T06:19:27.535Z,82.84
2018-09-06T06:20:27.520Z,83.12
2018-09-06T06:21:27.502Z,83.12
2018-09-06T06:22:27.485Z,83.07
2018-09-06T06:23:27.472Z,82.93
2018-09-06T06:24:27.454Z,83.16
2018-09-06T06:25:27.439Z,82.97
2018-09-06T06:26:27.423Z,83.26
2018-09-06T06:27:27.407Z,82.97
2018-09-06T06:28:27.391Z,83.07
2018-09-06T06:29:27.373Z,83.36
2018-09-06T06:30:27.362Z,82.97
2018-09-06T06:31:27.345Z,83.54
2018-09-06T06:32:27.327Z,83.45
2018-09-06T06:33:27.309Z,83.45
2018-09-06T06:34:27.294Z,83.16
2018-09-06T06:35:27.285Z,83.45
2018-09-06T06:36:27.263Z,83.16
2018-09-06T06:37:27.246Z,82.97
2018-09-06T06:38:27.230Z,83.26
2018-09-06T06:39:27.215Z,82.97
2018-09-06T06:40:27.197Z,83.45
2018-09-06T06:41:27.182Z,82.87
2018-09-06T06:42:27.165Z,82.92
2018-09-06T06:43:27.149Z,83.49
2018-09-06T06:44:27.134Z,83.40
2018-09-06T06:45:27.116Z,82.73
2018-09-06T06:46:27.103Z,82.73
2018-09-06T06:47:27.085Z,82.92
2018-09-06T06:48:27.069Z,83.30
2018-09-06T06:49:27.053Z,82.92
2018-09-06T06:50:27.060Z,82.53
2018-09-06T06:51:27.021Z,82.15
2018-09-06T06:52:27.010Z,81.86
2018-09-06T06:53:27.039Z,82.09
2018-09-06T06:54:26.974Z,81.42
2018-09-06T06:55:26.960Z,81.38
2018-09-06T06:56:26.942Z,82.29
2018-09-06T06:57:26.926Z,82.57
2018-09-06T06:58:26.963Z,82.57
2018-09-06T06:59:26.893Z,81.52
2018-09-06T07:00:26.879Z,80.84
2018-09-06T07:01:26.867Z,81.71
2018-09-06T07:02:26.849Z,81.81
2018-09-06T07:03:26.833Z,82.14
2018-09-06T07:04:26.866Z,82.19
2018-09-06T07:05:26.800Z,81.75
2018-09-06T07:06:26.784Z,81.65
2018-09-06T07:07:26.767Z,81.75
2018-09-06T07:08:26.754Z,81.75
2018-09-06T07:09:26.738Z,81.17
2018-09-06T07:10:26.722Z,81.07
2018-09-06T07:11:26.707Z,80.40
2018-09-06T07:12:26.693Z,80.98
2018-09-06T07:13:26.679Z,81.02
2018-09-06T07:14:26.658Z,80.88
2018-09-06T07:15:26.644Z,80.63
2018-09-06T07:16:26.629Z,80.44
2018-09-06T07:17:26.613Z,79.96
2018-09-06T07:18:26.709Z,79.58
2018-09-06T07:19:26.584Z,79.96
2018-09-06T07:20:26.567Z,79.96
2018-09-06T07:21:26.552Z,80.35
2018-09-06T07:22:26.536Z,79.96
2018-09-06T07:23:26.521Z,79.86
2018-09-06T07:24:26.506Z,79.77
2018-09-06T07:25:26.489Z,79.19
2018-09-06T07:26:26.473Z,79.52
2018-09-06T07:27:26.459Z,79.67
2018-09-06T07:28:26.444Z,79.10
2018-09-06T07:29:26.429Z,79.28
2018-09-06T07:30:26.480Z,79.19
2018-09-06T07:31:26.399Z,79.77
2018-09-06T07:32:26.384Z,80.06
2018-09-06T07:33:26.367Z,79.77
2018-09-06T07:34:26.352Z,79.77
2018-09-06T07:35:26.337Z,79.10
2018-09-06T07:36:26.321Z,79.77
2018-09-06T07:37:26.304Z,79.86
2018-09-06T07:38:26.291Z,79.58
2018-09-06T07:39:26.280Z,79.96
2018-09-06T07:40:26.261Z,80.15
2018-09-06T07:41:26.306Z,80.15
2018-09-06T07:42:26.232Z,81.40
2018-09-06T07:43:26.220Z,80.54
2018-09-06T07:44:26.198Z,80.15
2018-09-06T07:45:26.184Z,79.86
2018-09-06T07:46:26.169Z,79.96
2018-09-06T07:47:26.153Z,80.15
2018-09-06T07:48:26.137Z,80.77
2018-09-06T07:49:26.123Z,80.35
2018-09-06T07:50:26.105Z,80.92
2018-09-06T07:51:26.092Z,81.02
2018-09-06T07:52:26.144Z,80.83
2018-09-06T07:53:26.060Z,81.30
2018-09-06T07:54:26.044Z,81.21
2018-09-06T07:55:26.032Z,81.12
2018-09-06T07:56:26.017Z,81.88
2018-09-06T07:57:26.003Z,81.70
2018-09-06T07:58:25.983Z,82.08
2018-09-06T07:59:25.972Z,82.08
2018-09-06T08:00:25.958Z,81.70
2018-09-06T08:01:25.952Z,82.27
2018-09-06T08:02:25.922Z,81.79
2018-09-06T08:03:25.909Z,82.56
2018-09-06T08:04:25.895Z,82.75
2018-09-06T08:05:25.902Z,82.56
2018-09-06T08:06:25.863Z,82.56
2018-09-06T08:07:25.846Z,82.65
2018-09-06T08:08:25.837Z,81.98
2018-09-06T08:09:25.818Z,82.75
2018-09-06T08:10:25.802Z,83.42
2018-09-06T08:11:25.789Z,83.52
2018-09-06T08:12:25.772Z,83.72
2018-09-06T08:13:25.755Z,84.39
2018-09-06T08:14:25.741Z,84.00
2018-09-06T08:15:25.726Z,84.39
2018-09-06T08:16:25.711Z,84.67
2018-09-06T08:17:25.694Z,84.58
2018-09-06T08:18:25.677Z,84.87
2018-09-06T08:19:25.664Z,84.77
2018-09-06T08:20:25.649Z,84.67
2018-09-06T08:21:25.633Z,84.87
2018-09-06T08:22:25.618Z,85.06
2018-09-06T08:23:25.603Z,85.83
2018-09-06T08:24:25.663Z,85.64
2018-09-06T08:25:25.573Z,85.25
2018-09-06T08:26:25.556Z,85.83
2018-09-06T08:27:25.541Z,85.44
2018-09-06T08:28:25.528Z,85.64
2018-09-06T08:29:25.520Z,85.64
2018-09-06T08:30:25.496Z,85.35
2018-09-06T08:31:25.535Z,86.02
2018-09-06T08:32:25.470Z,86.41
2018-09-06T08:33:25.450Z,86.60
2018-09-06T08:34:25.433Z,86.41
2018-09-06T08:35:25.422Z,87.27
2018-09-06T08:36:25.404Z,87.08
2018-09-06T08:37:25.389Z,85.74
2018-09-06T08:38:25.374Z,85.74
2018-09-06T08:39:25.360Z,86.12
2018-09-06T08:40:25.343Z,87.18
2018-09-06T08:41:25.328Z,86.79
2018-09-06T08:42:25.312Z,87.37
2018-09-06T08:43:25.298Z,86.79
2018-09-06T08:44:25.283Z,87.85
2018-09-06T08:45:25.302Z,87.37
2018-09-06T08:46:25.251Z,87.37
2018-09-06T08:47:25.247Z,87.46
2018-09-06T08:48:25.221Z,87.27
2018-09-06T08:49:25.204Z,87.37
2018-09-06T08:50:25.190Z,88.24
2018-09-06T08:51:25.174Z,88.71
2018-09-06T08:52:25.184Z,87.85
2018-09-06T08:53:25.145Z,88.33
2018-09-06T08:54:25.130Z,89.39
2018-09-06T08:55:25.116Z,90.35
2018-09-06T08:56:25.099Z,90.55
2018-09-06T08:57:25.084Z,90.73
2018-09-06T08:58:25.102Z,90.64
2018-09-06T08:59:25.052Z,90.55
2018-09-06T09:00:25.040Z,89.78
2018-09-06T09:01:25.022Z,90.55
2018-09-06T09:02:25.034Z,91.22
2018-09-06T09:03:24.992Z,91.70
2018-09-06T09:04:25.003Z,90.83
2018-09-06T09:05:24.964Z,90.55
2018-09-06T09:06:24.947Z,91.03
2018-09-06T09:07:24.978Z,91.13
2018-09-06T09:08:24.971Z,90.06
2018-09-06T09:09:24.902Z,89.20
2018-09-06T09:10:24.884Z,88.43
2018-09-06T09:11:24.871Z,89.10
2018-09-06T09:12:24.903Z,88.62
2018-09-06T09:13:24.873Z,87.95
2018-09-06T09:14:24.826Z,87.37
2018-09-06T09:15:24.810Z,87.27
2018-09-06T09:16:24.796Z,87.85
2018-09-06T09:17:24.778Z,87.66
2018-09-06T09:18:24.875Z,88.04
2018-09-06T09:19:24.748Z,88.24
2018-09-06T09:20:24.737Z,87.46
2018-09-06T09:21:24.775Z,86.79
2018-09-06T09:22:24.793Z,86.69
2018-09-06T09:23:24.688Z,87.46
2018-09-06T09:24:24.672Z,87.46
2018-09-06T09:25:24.686Z,86.89
2018-09-06T09:26:24.643Z,86.60
2018-09-06T09:27:24.627Z,86.22
2018-09-06T09:28:24.612Z,87.18
2018-09-06T09:29:24.597Z,86.31
2018-09-06T09:30:24.621Z,86.02
2018-09-06T09:31:24.568Z,86.51
2018-09-06T09:32:24.550Z,85.44
2018-09-06T09:33:24.542Z,85.93
2018-09-06T09:34:24.526Z,87.18
2018-09-06T09:35:24.505Z,86.31
2018-09-06T09:36:24.494Z,86.22
2018-09-06T09:37:24.474Z,86.51
2018-09-06T09:38:24.461Z,87.18
2018-09-06T09:39:24.444Z,86.89
2018-09-06T09:40:24.465Z,87.56
2018-09-06T09:41:24.414Z,87.56
2018-09-06T09:42:24.399Z,87.33
2018-09-06T09:43:24.466Z,87.27
2018-09-06T09:44:24.369Z,88.19
2018-09-06T09:45:24.368Z,89.15
2018-09-06T09:47:56.440Z,89.92
2018-09-06T09:48:56.390Z,89.44
2018-09-06T09:50:49.738Z,89.92
2018-09-06T09:51:49.715Z,91.36
2018-09-06T09:53:43.096Z,92.23
2018-09-06T09:54:43.054Z,92.43
2018-09-06T09:56:37.421Z,94.06
2018-09-06T09:57:37.381Z,94.06
2018-09-06T09:59:30.729Z,94.54
2018-09-06T10:00:30.707Z,94.45
2018-09-06T10:02:24.078Z,94.83
2018-09-06T10:03:24.035Z,95.21
2018-09-06T10:05:17.390Z,95.40
2018-09-06T10:06:17.364Z,94.54
2018-09-06T10:08:10.730Z,94.92
2018-09-06T10:09:10.692Z,97.42
2018-09-06T10:11:04.038Z,98.00
2018-09-06T10:12:04.016Z,97.04
2018-09-06T10:13:57.384Z,98.77
2018-09-06T10:14:57.346Z,98.77
2018-09-06T10:16:51.717Z,99.93
2018-09-06T10:17:51.672Z,99.99
2018-09-06T10:19:45.018Z,99.99
2018-09-06T10:20:44.996Z,99.26
2018-09-06T10:22:38.366Z,98.77
2018-09-06T10:23:38.324Z,98.68
2018-09-06T10:25:31.673Z,98.87
2018-09-06T10:26:31.650Z,99.01
2018-09-06T10:28:25.021Z,98.77
2018-09-06T10:29:24.977Z,98.96
2018-09-06T10:31:18.326Z,98.34
2018-09-06T10:32:18.307Z,97.76
2018-09-06T10:34:11.677Z,97.96
2018-09-06T10:35:11.635Z,99.16
2018-09-06T10:37:05.009Z,99.21
2018-09-06T10:38:04.961Z,99.11
2018-09-06T10:39:58.326Z,99.78
2018-09-06T10:40:58.287Z,99.49
2018-09-06T10:42:51.659Z,99.11
2018-09-06T10:43:51.614Z,99.01
2018-09-06T10:45:44.969Z,98.91
2018-09-06T10:46:44.943Z,99.78
2018-09-06T10:48:38.318Z,99.68
2018-09-06T10:49:38.274Z,99.54
2018-09-06T10:51:31.625Z,99.78
2018-09-06T10:52:31.599Z,99.99
2018-09-06T10:54:24.975Z,99.99
2018-09-06T10:55:24.926Z,99.99
2018-09-06T10:57:18.310Z,99.88
2018-09-06T10:58:18.252Z,99.88
2018-09-06T11:00:11.601Z,99.99
2018-09-06T11:01:11.579Z,99.78
2018-09-06T11:03:05.947Z,99.99
2018-09-06T11:04:05.906Z,99.78
2018-09-06T11:05:59.253Z,99.99
2018-09-06T11:06:59.232Z,99.99
2018-09-06T11:08:52.601Z,99.99
2018-09-06T11:09:52.559Z,99.99
2018-09-06T11:11:45.912Z,99.99
2018-09-06T11:12:45.888Z,99.99
2018-09-06T11:14:39.259Z,99.99
2018-09-06T11:15:39.217Z,99.99
2018-09-06T11:17:33.598Z,99.99
2018-09-06T11:18:33.545Z,99.99
2018-09-06T11:20:26.895Z,99.99
2018-09-06T11:21:26.944Z,99.99
2018-09-06T11:23:20.240Z,99.99
2018-09-06T11:24:20.200Z,99.99
2018-09-06T11:26:13.550Z,99.99
2018-09-06T11:27:13.523Z,99.99
2018-09-06T11:29:06.894Z,99.99
2018-09-06T11:30:06.849Z,99.99
2018-09-06T11:32:00.198Z,99.99
2018-09-06T11:33:00.180Z,99.99
2018-09-06T11:34:54.547Z,99.99
2018-09-06T11:35:54.508Z,99.99
2018-09-06T11:36:54.491Z,99.99
2018-09-06T11:37:54.472Z,99.99
2018-09-06T11:38:54.456Z,99.99
2018-09-06T11:39:54.455Z,99.99
2018-09-06T11:40:54.424Z,99.99
2018-09-06T11:41:54.423Z,99.99
2018-09-06T11:42:54.394Z,99.99
2018-09-06T11:43:54.383Z,99.99
2018-09-06T11:44:54.362Z,99.99
2018-09-06T11:45:54.346Z,99.99
2018-09-06T11:46:54.413Z,99.99
2018-09-06T11:47:54.373Z,99.99
2018-09-06T11:48:54.302Z,99.99
2018-09-06T11:49:54.287Z,99.99
2018-09-06T11:50:54.270Z,99.99
2018-09-06T11:51:54.273Z,99.99
2018-09-06T11:52:54.238Z,99.99
2018-09-06T11:53:54.223Z,99.99
2018-09-06T11:54:54.209Z,99.99
2018-09-06T11:55:54.192Z,99.99
2018-09-06T11:56:54.181Z,99.99
2018-09-06T11:57:54.160Z,99.99
2018-09-06T11:58:54.145Z,99.99
2018-09-06T11:59:54.129Z,99.99
2018-09-06T12:00:54.121Z,99.99
2018-09-06T12:01:54.098Z,99.99
2018-09-06T12:02:54.083Z,99.99
2018-09-06T12:03:54.067Z,99.99
2018-09-06T12:04:54.050Z,99.99
2018-09-06T12:05:54.035Z,99.99
2018-09-06T12:06:54.021Z,99.99
2018-09-06T12:07:54.005Z,99.99
2018-09-06T12:08:53.986Z,99.99
2018-09-06T12:09:53.972Z,99.99
2018-09-06T12:10:53.957Z,99.99
2018-09-06T12:11:53.941Z,99.99
2018-09-06T12:12:53.926Z,99.99
2018-09-06T12:13:54.086Z,99.99
2018-09-06T12:14:53.894Z,99.99
2018-09-06T12:15:53.878Z,99.99
2018-09-06T12:16:53.863Z,99.99
2018-09-06T12:17:53.846Z,99.99
2018-09-06T12:18:53.831Z,99.99
2018-09-06T12:19:53.818Z,99.99
2018-09-06T12:20:53.799Z,99.99
2018-09-06T12:21:53.785Z,99.99
2018-09-06T12:22:53.770Z,99.99
2018-09-06T12:23:53.755Z,99.99
2018-09-06T12:24:53.736Z,99.99
2018-09-06T12:25:53.725Z,99.99
2018-09-06T12:26:53.707Z,99.99
2018-09-06T12:27:53.694Z,99.99
2018-09-06T12:28:53.675Z,99.99
2018-09-06T12:29:53.658Z,99.99
2018-09-06T12:30:53.644Z,99.99
2018-09-06T12:31:53.629Z,99.99
2018-09-06T12:32:53.650Z,99.99
2018-09-06T12:33:53.598Z,99.99
2018-09-06T12:34:53.582Z,99.99
2018-09-06T12:35:53.567Z,99.99
2018-09-06T12:36:53.549Z,99.99
2018-09-06T12:37:53.545Z,99.99
2018-09-06T12:38:53.520Z,99.99
2018-09-06T12:39:53.504Z,99.99
2018-09-06T12:40:53.488Z,99.99
2018-09-06T12:41:53.472Z,99.99
2018-09-06T12:42:53.457Z,99.99
2018-09-06T12:43:53.443Z,99.99
2018-09-06T12:44:53.426Z,99.99
2018-09-06T12:45:53.412Z,99.99
2018-09-06T12:46:53.443Z,99.99
2018-09-06T12:47:53.390Z,99.99
2018-09-06T12:48:53.365Z,99.99
2018-09-06T12:49:53.348Z,99.99
2018-09-06T12:50:53.333Z,99.99
2018-09-06T12:51:53.319Z,99.99
2018-09-06T12:52:53.301Z,99.99
2018-09-06T12:53:53.286Z,99.99
2018-09-06T12:54:53.275Z,99.99
2018-09-06T12:55:53.255Z,99.99
2018-09-06T12:56:53.240Z,99.99
2018-09-06T12:57:53.222Z,99.99
2018-09-06T12:58:53.208Z,99.99
2018-09-06T12:59:53.192Z,99.99
2018-09-06T13:00:53.175Z,99.99
2018-09-06T13:01:53.159Z,99.99
2018-09-06T13:02:53.148Z,99.99
2018-09-06T13:03:53.131Z,99.99
2018-09-06T13:04:53.115Z,99.99
2018-09-06T13:05:53.099Z,99.99
2018-09-06T13:06:53.101Z,99.99
2018-09-06T13:07:53.071Z,99.99
2018-09-06T13:08:53.058Z,99.99
2018-09-06T13:09:53.036Z,99.99
2018-09-06T13:10:53.021Z,99.99
2018-09-06T13:11:53.006Z,99.99
2018-09-06T13:12:52.988Z,99.99
2018-09-06T13:13:52.974Z,99.99
2018-09-06T13:14:52.958Z,99.99
2018-09-06T13:15:52.943Z,99.99
2018-09-06T13:16:52.927Z,99.99
2018-09-06T13:17:52.917Z,99.99
2018-09-06T13:18:52.980Z,99.99
2018-09-06T13:19:52.882Z,99.99
2018-09-06T13:20:52.870Z,99.99
2018-09-06T13:21:52.852Z,99.99
2018-09-06T13:22:52.838Z,99.99
2018-09-06T13:23:52.819Z,99.99
2018-09-06T13:24:52.804Z,99.99
2018-09-06T13:25:52.788Z,99.99
2018-09-06T13:26:52.773Z,99.99